createdAt,value
2019-02-25T00:00:29.923Z,104003.91
2019-02-25T00:05:31.964Z,104006.73
2019-02-25T00:10:34.998Z,104004.47
2019-02-25T00:15:37.191Z,103992.72
2019-02-25T00:20:41.342Z,104000.01
2019-02-25T00:25:43.635Z,104007.52
2019-02-25T00:30:48.191Z,103998.88
2019-02-25T00:35:53.255Z,103996.13
2019-02-25T00:40:55.653Z,103986.48
2019-02-25T00:45:58.748Z,103994.29
2019-02-25T00:51:00.765Z,103981.41
2019-02-25T00:56:09.947Z,103986.62
2019-02-25T01:01:12.215Z,103990.23
2019-02-25T01:06:14.501Z,103988.83
2019-02-25T01:11:16.611Z,104003.34
2019-02-25T01:16:18.775Z,103989.92
2019-02-25T01:21:21.025Z,103976.13
2019-02-25T01:26:23.449Z,103982.46
2019-02-25T01:31:27.656Z,103978.76
2019-02-25T01:36:29.804Z,103978.58
2019-02-25T01:41:31.852Z,103979.70
2019-02-25T01:46:34.040Z,103975.90
2019-02-25T01:51:36.057Z,103984.33
2019-02-25T01:56:38.359Z,103976.77
2019-02-25T02:01:40.454Z,103957.77
2019-02-25T02:06:42.576Z,103957.34
2019-02-25T02:11:44.595Z,103943.97
2019-02-25T02:16:46.602Z,103922.50
2019-02-25T02:21:48.644Z,103927.42
2019-02-25T02:26:53.271Z,103912.83
2019-02-25T02:31:55.279Z,103900.30
2019-02-25T02:36:58.758Z,103889.33
2019-02-25T02:42:19.779Z,103890.64
2019-02-25T02:48:03.291Z,103896.80
2019-02-25T02:53:08.276Z,103898.80
2019-02-25T02:58:10.607Z,103892.27
2019-02-25T03:03:12.732Z,103901.92
2019-02-25T03:08:14.736Z,103908.35
2019-02-25T03:13:18.137Z,103915.91
2019-02-25T03:18:20.172Z,103916.19
2019-02-25T03:23:22.161Z,103925.37
2019-02-25T03:28:25.623Z,103923.05
2019-02-25T03:33:27.634Z,103934.16
2019-02-25T03:38:29.645Z,103923.55
2019-02-25T03:43:34.535Z,103918.40
2019-02-25T03:48:36.560Z,103902.72
2019-02-25T03:53:38.743Z,103907.03
2019-02-25T03:58:40.741Z,103922.17
2019-02-25T04:03:42.778Z,103933.95
2019-02-25T04:08:44.848Z,103943.52
2019-02-25T04:13:49.752Z,103972.20
2019-02-25T04:18:51.830Z,103973.91
2019-02-25T04:23:53.970Z,103963.77
2019-02-25T04:29:01.069Z,103952.28
2019-02-25T04:34:03.160Z,103947.42
2019-02-25T04:39:05.466Z,103928.88
2019-02-25T04:44:07.504Z,103921.85
2019-02-25T04:49:09.519Z,103917.13
2019-02-25T04:54:11.558Z,103908.71
2019-02-25T04:59:13.546Z,103898.78
2019-02-25T05:04:15.559Z,103909.48
2019-02-25T05:09:17.638Z,103906.95
2019-02-25T05:14:20.376Z,103903.21
2019-02-25T05:19:22.383Z,103893.42
2019-02-25T05:24:24.528Z,103882.26
2019-02-25T05:29:30.794Z,103885.26
2019-02-25T05:34:35.900Z,103890.41
2019-02-25T05:39:42.920Z,103886.23
2019-02-25T05:44:45.097Z,103887.98
2019-02-25T05:49:47.117Z,103907.44
2019-02-25T05:54:49.378Z,103921.74
2019-02-25T05:59:51.417Z,103952.06
2019-02-25T06:04:53.435Z,103953.70
2019-02-25T06:09:58.083Z,103951.34
2019-02-25T06:15:00.343Z,103970.65
2019-02-25T06:20:02.605Z,103965.39
2019-02-25T06:25:05.693Z,103990.16
2019-02-25T06:30:10.344Z,103989.12
2019-02-25T06:35:13.779Z,104007.18
2019-02-25T06:40:16.194Z,104012.29
2019-02-25T06:45:22.971Z,104011.69
2019-02-25T06:50:24.959Z,104029.44
2019-02-25T06:55:29.322Z,104028.78
2019-02-25T07:00:32.978Z,104025.70
2019-02-25T07:06:09.632Z,104022.52
2019-02-25T07:11:21.905Z,104028.19
2019-02-25T07:16:44.813Z,104023.02
2019-02-25T07:21:55.922Z,104012.67
2019-02-25T07:27:29.708Z,104017.16
2019-02-25T07:33:09.940Z,104025.88
2019-02-25T07:38:22.527Z,104022.85
2019-02-25T07:43:51.303Z,104020.72
2019-02-25T07:49:12.790Z,104020.81
2019-02-25T07:54:30.723Z,104027.39
2019-02-25T07:59:52.651Z,104034.56
2019-02-25T08:05:17.023Z,104035.88
2019-02-25T08:10:25.122Z,104033.34
2019-02-25T08:15:52.665Z,104036.80
2019-02-25T08:21:19.131Z,104042.28
2019-02-25T08:26:47.042Z,104043.73
2019-02-25T08:32:17.699Z,104049.17
2019-02-25T08:38:16.545Z,104037.83
2019-02-25T08:43:28.550Z,104038.62
2019-02-25T08:48:41.693Z,104034.45
2019-02-25T08:53:43.884Z,104036.63
2019-02-25T08:58:45.896Z,104034.20
2019-02-25T09:03:48.133Z,104038.45
2019-02-25T09:08:51.684Z,104029.23
2019-02-25T09:13:56.686Z,104034.45
2019-02-25T09:18:58.656Z,104031.36
2019-02-25T09:24:00.749Z,104025.45
2019-02-25T09:29:08.004Z,104016.22
2019-02-25T09:34:16.932Z,104012.86
2019-02-25T09:39:20.843Z,103999.67
2019-02-25T09:44:25.018Z,103987.43
2019-02-25T09:49:27.023Z,103988.17
2019-02-25T09:54:31.514Z,103979.61
2019-02-25T09:59:34.423Z,103978.55
2019-02-25T10:04:39.049Z,103987.87
2019-02-25T10:09:43.890Z,103980.12
2019-02-25T10:14:49.594Z,103969.11
2019-02-25T10:19:52.262Z,103971.23
2019-02-25T10:24:54.279Z,103964.30
2019-02-25T10:29:56.288Z,103958.58
2019-02-25T10:35:01.109Z,103930.81
2019-02-25T10:40:04.128Z,103937.66
2019-02-25T10:45:13.511Z,103942.82
2019-02-25T10:50:18.578Z,103942.96
2019-02-25T10:55:28.447Z,103947.17
2019-02-25T11:00:35.284Z,103969.41
2019-02-25T11:05:37.733Z,103977.78
2019-02-25T11:10:44.112Z,103977.80
2019-02-25T11:15:49.249Z,103958.61
2019-02-25T11:20:51.411Z,103949.50
2019-02-25T11:25:56.279Z,103936.70
2019-02-25T11:30:58.399Z,103948.04
2019-02-25T11:36:00.424Z,103940.61
2019-02-25T11:41:04.206Z,103933.16
2019-02-25T11:46:08.356Z,103921.67
2019-02-25T11:51:10.382Z,103915.70
2019-02-25T11:56:14.151Z,103910.39
2019-02-25T12:01:16.477Z,103909.77
2019-02-25T12:06:20.987Z,103894.84
2019-02-25T12:11:25.196Z,103889.95
2019-02-25T12:16:27.403Z,103884.78
2019-02-25T12:21:30.551Z,103873.89
2019-02-25T12:26:35.595Z,103857.36
2019-02-25T12:31:37.657Z,103857.36
2019-02-25T12:36:39.852Z,103876.34
2019-02-25T12:41:42.891Z,103860.09
2019-02-25T12:46:46.064Z,103860.09
2019-02-25T12:51:48.093Z,103869.66
2019-02-25T12:56:50.338Z,103862.43
2019-02-25T13:01:52.399Z,103861.95
2019-02-25T13:06:54.443Z,103851.92
2019-02-25T13:11:56.552Z,103855.19
2019-02-25T13:16:58.578Z,103850.83
2019-02-25T13:22:00.623Z,103844.22
2019-02-25T13:27:03.154Z,103835.22
2019-02-25T13:32:06.343Z,103842.29
2019-02-25T13:37:08.363Z,103842.29
2019-02-25T13:42:10.508Z,103840.47
2019-02-25T13:47:15.092Z,103832.52
2019-02-25T13:52:17.273Z,103826.88
2019-02-25T13:57:19.286Z,103830.59
2019-02-25T14:02:21.527Z,103825.99
2019-02-25T14:07:23.563Z,103812.42
2019-02-25T14:12:25.808Z,103814.75
2019-02-25T14:17:27.923Z,103817.31
2019-02-25T14:22:31.305Z,103816.18
2019-02-25T14:27:33.605Z,103821.34
2019-02-25T14:32:38.806Z,103825.16
2019-02-25T14:37:40.912Z,103822.18
2019-02-25T14:42:46.882Z,103825.34
2019-02-25T14:47:49.534Z,103823.06
2019-02-25T14:52:54.341Z,103811.93
2019-02-25T14:58:00.001Z,103812.45
2019-02-25T15:03:04.332Z,103814.55
2019-02-25T15:08:07.584Z,103807.17
2019-02-25T15:13:10.554Z,103797.76
2019-02-25T15:18:15.279Z,103809.07
2019-02-25T15:23:22.561Z,103808.09
2019-02-25T15:28:23.360Z,103805.18
2019-02-25T15:33:25.881Z,103806.45
2019-02-25T15:38:29.082Z,103812.42
2019-02-25T15:43:32.174Z,103808.12
2019-02-25T15:48:35.042Z,103818.86
2019-02-25T15:53:38.290Z,103811.73
2019-02-25T15:58:40.434Z,103815.64
2019-02-25T16:03:43.053Z,103818.00
2019-02-25T16:08:49.843Z,103804.72
2019-02-25T16:13:53.502Z,103807.98
2019-02-25T16:18:57.622Z,103812.83
2019-02-25T16:24:11.671Z,103813.52
2019-02-25T16:29:13.342Z,103810.63
2019-02-25T16:34:16.381Z,103808.97
2019-02-25T16:39:19.719Z,103808.12
2019-02-25T16:44:22.131Z,103867.07
2019-02-25T16:49:24.235Z,103799.07
2019-02-25T16:54:29.733Z,103800.99
2019-02-25T16:59:31.971Z,103803.23
2019-02-25T17:04:34.329Z,103816.37
2019-02-25T17:09:38.791Z,103816.37
2019-02-25T17:14:41.243Z,103824.64
2019-02-25T17:19:43.316Z,103821.02
2019-02-25T17:24:45.632Z,103831.37
2019-02-25T17:29:49.115Z,103821.09
2019-02-25T17:34:52.658Z,103827.35
2019-02-25T17:39:58.472Z,103821.14
2019-02-25T17:45:02.560Z,103824.78
2019-02-25T17:50:06.422Z,103822.28
2019-02-25T17:55:12.798Z,103820.13
2019-02-25T18:00:20.400Z,103821.02
2019-02-25T18:05:22.642Z,103816.65
2019-02-25T18:10:25.625Z,103816.21
2019-02-25T18:15:31.106Z,103821.44
2019-02-25T18:20:38.909Z,103813.28
2019-02-25T18:25:41.414Z,103799.85
2019-02-25T18:30:46.683Z,103797.92
2019-02-25T18:35:53.879Z,103810.68
2019-02-25T18:40:58.725Z,103819.20
2019-02-25T18:46:04.813Z,103821.08
2019-02-25T18:51:09.337Z,103820.47
2019-02-25T19:01:36.285Z,103821.42
2019-02-25T19:06:41.905Z,103821.52
2019-02-25T19:11:46.929Z,103819.37
2019-02-25T19:16:50.287Z,103814.65
2019-02-25T19:21:56.179Z,103810.19
2019-02-25T19:27:04.338Z,103820.09
2019-02-25T19:32:04.953Z,103818.38
2019-02-25T19:37:10.403Z,103813.91
2019-02-25T19:42:18.174Z,103806.13
2019-02-25T19:47:22.948Z,103813.83
2019-02-25T19:52:30.720Z,103805.45
2019-02-25T19:57:33.917Z,103803.55
2019-02-25T20:02:37.000Z,103801.18
2019-02-25T20:07:39.743Z,103795.13
2019-02-25T20:12:41.858Z,103794.83
2019-02-25T20:17:48.820Z,103802.92
2019-02-25T20:22:52.902Z,103792.11
2019-02-25T20:27:59.840Z,103789.69
2019-02-25T20:33:06.347Z,103783.92
2019-02-25T20:38:09.654Z,103788.05
2019-02-25T20:43:17.120Z,103794.16
2019-02-25T20:48:18.400Z,103793.06
2019-02-25T20:53:20.751Z,103794.09
2019-02-25T20:58:24.729Z,103793.17
2019-02-25T21:03:28.132Z,103797.91
2019-02-25T21:08:32.516Z,103792.72
2019-02-25T21:13:35.900Z,103790.86
2019-02-25T21:18:39.234Z,103782.48
2019-02-25T21:23:41.600Z,103786.98
2019-02-25T21:28:45.111Z,103789.34
2019-02-25T21:33:49.850Z,103785.29
2019-02-25T21:38:54.388Z,103788.39
2019-02-25T21:44:03.715Z,103802.29
2019-02-25T21:49:06.774Z,103798.11
2019-02-25T21:54:10.072Z,103789.30
2019-02-25T21:59:12.770Z,103777.74
2019-02-25T22:04:17.985Z,103775.69
2019-02-25T22:09:35.478Z,103767.09
2019-02-25T22:14:26.648Z,103768.22
2019-02-25T22:19:29.823Z,103763.27
2019-02-25T22:24:38.775Z,103767.69
2019-02-25T22:29:42.769Z,103768.14
2019-02-25T22:34:49.505Z,103762.84
2019-02-25T22:39:55.932Z,103765.95
2019-02-25T22:44:58.158Z,103758.41
2019-02-25T22:50:06.496Z,103763.11
2019-02-25T22:55:10.122Z,103754.47
2019-02-25T23:01:01.571Z,103757.91
2019-02-25T23:06:09.262Z,103751.47
2019-02-25T23:11:14.281Z,103743.29
2019-02-25T23:16:18.691Z,103747.27
2019-02-25T23:21:23.926Z,103754.75
2019-02-25T23:26:24.324Z,103752.37
2019-02-25T23:31:29.934Z,103753.69
2019-02-25T23:36:34.646Z,103752.94
2019-02-25T23:41:38.982Z,103746.61
2019-02-25T23:46:42.222Z,103745.16
2019-02-25T23:51:45.911Z,103733.26
2019-02-25T23:56:50.248Z,103726.77
